createdAt,value
2019-03-29T00:00:50.742Z,50.43
2019-03-29T00:03:20.424Z,46.93
2019-03-29T00:05:50.063Z,46.90
2019-03-29T00:08:19.697Z,57.77
2019-03-29T00:10:49.442Z,46.60
2019-03-29T00:13:19.322Z,48.03
2019-03-29T00:15:48.966Z,49.40
2019-03-29T00:18:18.675Z,47.57
2019-03-29T00:20:48.472Z,49.90
2019-03-29T00:23:18.209Z,46.77
2019-03-29T00:25:47.850Z,47.40
2019-03-29T00:28:17.582Z,47.83
2019-03-29T00:30:47.936Z,45.33
2019-03-29T00:33:17.670Z,44.63
2019-03-29T00:35:47.393Z,46.30
2019-03-29T00:38:17.055Z,45.87
2019-03-29T00:40:46.741Z,43.57
2019-03-29T00:43:16.436Z,43.93
2019-03-29T00:45:46.096Z,46.57
2019-03-29T00:48:15.734Z,45.40
2019-03-29T00:50:45.417Z,43.63
2019-03-29T00:53:15.121Z,44.07
2019-03-29T00:55:44.802Z,39.40
2019-03-29T00:58:14.583Z,39.20
2019-03-29T01:00:44.252Z,42.20
2019-03-29T01:03:13.875Z,45.87
2019-03-29T01:05:43.541Z,44.13
2019-03-29T01:08:13.212Z,38.90
2019-03-29T01:10:42.859Z,39.20
2019-03-29T01:13:12.531Z,44.67
2019-03-29T01:15:42.167Z,40.63
2019-03-29T01:18:12.274Z,41.37
2019-03-29T01:20:42.072Z,43.90
2019-03-29T01:23:11.781Z,42.33
2019-03-29T01:25:41.564Z,45.20
2019-03-29T01:28:12.054Z,44.50
2019-03-29T01:30:41.908Z,41.37
2019-03-29T01:33:11.706Z,42.47
2019-03-29T01:35:41.512Z,43.83
2019-03-29T01:38:21.708Z,44.47
2019-03-29T01:40:42.807Z,46.50
2019-03-29T01:43:12.616Z,42.63
2019-03-29T01:45:42.504Z,44.47
2019-03-29T01:48:12.296Z,42.43
2019-03-29T01:50:42.066Z,45.20
2019-03-29T01:53:12.044Z,36.97
2019-03-29T01:55:41.972Z,42.90
2019-03-29T01:58:11.708Z,38.63
2019-03-29T02:00:41.471Z,38.13
2019-03-29T02:03:11.246Z,40.70
2019-03-29T02:05:40.975Z,40.27
2019-03-29T02:08:10.673Z,43.27
2019-03-29T02:10:40.539Z,42.20
2019-03-29T02:13:10.301Z,40.00
2019-03-29T02:15:40.068Z,40.73
2019-03-29T02:18:09.764Z,37.13
2019-03-29T02:20:39.537Z,40.70
2019-03-29T02:23:09.192Z,37.53
2019-03-29T02:25:38.929Z,40.30
2019-03-29T02:28:08.772Z,41.23
2019-03-29T02:30:38.521Z,43.63
2019-03-29T02:33:08.483Z,42.20
2019-03-29T02:35:38.975Z,38.63
2019-03-29T02:38:08.858Z,41.30
2019-03-29T02:40:38.623Z,41.17
2019-03-29T02:43:09.573Z,40.57
2019-03-29T02:45:39.914Z,41.13
2019-03-29T02:48:09.681Z,37.67
2019-03-29T02:50:39.549Z,37.93
2019-03-29T02:53:09.293Z,44.80
2019-03-29T02:55:39.006Z,39.30
2019-03-29T02:58:08.748Z,39.50
2019-03-29T03:00:38.483Z,43.80
2019-03-29T03:03:08.298Z,39.63
2019-03-29T03:05:38.076Z,37.53
2019-03-29T03:08:07.797Z,38.83
2019-03-29T03:10:37.647Z,39.00
2019-03-29T03:13:07.378Z,36.47
2019-03-29T03:15:37.103Z,39.13
2019-03-29T03:18:06.842Z,38.27
2019-03-29T03:20:36.613Z,39.40
2019-03-29T03:23:06.383Z,38.87
2019-03-29T03:25:36.183Z,40.33
2019-03-29T03:28:05.910Z,36.33
2019-03-29T03:30:35.674Z,35.47
2019-03-29T03:33:05.680Z,35.97
2019-03-29T03:35:35.388Z,35.20
2019-03-29T03:38:05.071Z,33.30
2019-03-29T03:40:34.806Z,33.63
2019-03-29T03:43:04.492Z,35.10
2019-03-29T03:45:34.289Z,38.30
2019-03-29T03:48:04.050Z,41.67
2019-03-29T03:50:40.102Z,38.60
2019-03-29T03:53:10.089Z,36.87
2019-03-29T03:55:41.198Z,36.80
2019-03-29T03:58:11.346Z,34.70
2019-03-29T04:00:50.615Z,33.43
2019-03-29T04:03:20.404Z,31.67
2019-03-29T04:05:50.261Z,36.03
2019-03-29T04:08:20.062Z,34.20
2019-03-29T04:10:49.889Z,31.47
2019-03-29T04:13:19.653Z,34.10
2019-03-29T04:15:49.450Z,31.27
2019-03-29T04:18:19.266Z,34.07
2019-03-29T04:20:49.008Z,32.10
2019-03-29T04:23:18.792Z,34.47
2019-03-29T04:25:48.617Z,31.80
2019-03-29T04:28:18.481Z,33.03
2019-03-29T04:30:48.456Z,33.13
2019-03-29T04:33:18.169Z,34.73
2019-03-29T04:35:47.956Z,32.00
2019-03-29T04:38:17.670Z,29.87
2019-03-29T04:40:47.393Z,33.13
2019-03-29T04:43:17.211Z,31.70
2019-03-29T04:45:46.938Z,32.20
2019-03-29T04:48:16.718Z,28.70
2019-03-29T04:50:46.511Z,33.07
2019-03-29T04:53:16.216Z,29.47
2019-03-29T04:55:46.023Z,29.43
2019-03-29T04:58:15.741Z,31.27
2019-03-29T05:00:45.517Z,31.17
2019-03-29T05:03:15.205Z,34.60
2019-03-29T05:05:45.015Z,32.10
2019-03-29T05:08:14.787Z,31.83
2019-03-29T05:10:44.625Z,32.40
2019-03-29T05:13:14.362Z,32.23
2019-03-29T05:15:44.088Z,31.87
2019-03-29T05:18:13.757Z,30.53
2019-03-29T05:20:43.462Z,29.63
2019-03-29T05:23:13.180Z,40.00
2019-03-29T05:25:43.010Z,33.07
2019-03-29T05:28:12.729Z,29.37
2019-03-29T05:30:42.506Z,31.67
2019-03-29T05:33:12.373Z,32.50
2019-03-29T05:35:42.183Z,28.60
2019-03-29T05:38:11.966Z,29.23
2019-03-29T05:40:41.743Z,31.23
2019-03-29T05:43:11.511Z,32.60
2019-03-29T05:45:41.337Z,28.67
2019-03-29T05:48:11.123Z,29.03
2019-03-29T05:50:40.865Z,29.53
2019-03-29T05:53:10.635Z,27.93
2019-03-29T05:55:40.431Z,29.57
2019-03-29T05:58:10.196Z,31.80
2019-03-29T06:00:39.996Z,32.37
2019-03-29T06:03:10.248Z,33.73
2019-03-29T06:05:40.274Z,29.27
2019-03-29T06:08:10.036Z,28.80
2019-03-29T06:10:48.732Z,33.10
2019-03-29T06:13:11.609Z,29.60
2019-03-29T06:15:45.798Z,27.73
2019-03-29T06:18:20.846Z,26.73
2019-03-29T06:20:53.586Z,28.97
2019-03-29T06:23:24.099Z,27.27
2019-03-29T06:25:57.805Z,26.77
2019-03-29T06:28:51.210Z,26.57
2019-03-29T06:31:36.267Z,23.77
2019-03-29T06:34:06.789Z,25.83
2019-03-29T06:36:37.765Z,22.20
2019-03-29T06:39:10.143Z,22.47
2019-03-29T06:41:45.501Z,23.67
2019-03-29T06:44:16.360Z,22.37
2019-03-29T06:46:47.077Z,20.17
2019-03-29T06:49:17.157Z,21.67
2019-03-29T06:51:47.722Z,21.60
2019-03-29T06:54:18.171Z,20.00
2019-03-29T06:56:48.755Z,22.00
2019-03-29T06:59:19.478Z,20.77
2019-03-29T07:01:50.574Z,20.57
2019-03-29T07:04:23.068Z,20.03
2019-03-29T07:06:54.498Z,23.93
2019-03-29T07:09:25.397Z,24.00
2019-03-29T07:11:58.973Z,18.83
2019-03-29T07:17:04.890Z,18.97
2019-03-29T07:19:34.615Z,20.07
2019-03-29T07:22:04.282Z,22.40
2019-03-29T07:24:33.920Z,19.60
2019-03-29T07:27:03.710Z,19.73
2019-03-29T07:29:33.416Z,20.50
2019-03-29T07:32:03.158Z,21.03
2019-03-29T07:34:32.776Z,20.27
2019-03-29T07:37:05.631Z,20.17
2019-03-29T07:39:33.902Z,19.57
2019-03-29T07:42:03.590Z,21.40
2019-03-29T07:44:33.267Z,19.70
2019-03-29T07:47:02.983Z,16.20
2019-03-29T07:49:32.778Z,12.10
2019-03-29T07:52:02.601Z,12.10
2019-03-29T07:54:32.288Z,11.07
2019-03-29T07:57:01.986Z,9.53
2019-03-29T07:59:31.807Z,10.80
2019-03-29T08:02:02.323Z,6.53
2019-03-29T08:04:32.073Z,7.90
2019-03-29T08:07:01.831Z,5.87
2019-03-29T08:09:31.513Z,5.43
2019-03-29T08:12:01.352Z,6.67
2019-03-29T08:14:31.048Z,6.33
2019-03-29T08:17:00.822Z,6.10
2019-03-29T08:19:30.495Z,6.57
2019-03-29T08:22:00.381Z,7.10
2019-03-29T08:24:30.053Z,8.23
2019-03-29T08:26:59.868Z,8.80
2019-03-29T08:29:31.498Z,8.70
2019-03-29T08:32:01.300Z,8.73
2019-03-29T08:34:30.959Z,9.43
2019-03-29T08:37:00.712Z,9.37
2019-03-29T08:39:30.572Z,9.77
2019-03-29T08:42:00.881Z,9.90
2019-03-29T08:44:30.761Z,10.07
2019-03-29T08:47:00.631Z,9.40
2019-03-29T08:49:30.268Z,9.10
2019-03-29T08:51:59.968Z,9.43
2019-03-29T08:54:29.691Z,9.80
2019-03-29T08:57:00.530Z,9.03
2019-03-29T08:59:30.314Z,9.07
2019-03-29T09:02:00.087Z,9.15
2019-03-29T09:04:29.839Z,9.08
2019-03-29T09:06:59.690Z,9.28
2019-03-29T09:09:29.441Z,8.93
2019-03-29T09:12:13.408Z,8.83
2019-03-29T09:14:31.547Z,9.38
2019-03-29T09:17:02.078Z,7.47
2019-03-29T09:19:33.558Z,7.37
2019-03-29T09:22:04.049Z,6.60
2019-03-29T09:24:34.145Z,6.40
2019-03-29T09:27:03.952Z,5.92
2019-03-29T09:29:33.709Z,6.83
2019-03-29T09:32:03.768Z,6.42
2019-03-29T09:34:33.505Z,6.60
2019-03-29T09:37:04.449Z,4.90
2019-03-29T09:39:34.251Z,6.20
2019-03-29T09:42:05.338Z,4.75
2019-03-29T09:44:35.191Z,4.60
2019-03-29T09:47:04.953Z,5.20
2019-03-29T09:49:34.658Z,5.47
2019-03-29T09:52:04.498Z,5.15
2019-03-29T09:54:34.356Z,4.80
2019-03-29T09:57:04.051Z,4.92
2019-03-29T09:59:33.919Z,5.17
2019-03-29T10:02:03.729Z,4.62
2019-03-29T10:04:33.430Z,4.60
2019-03-29T10:07:04.365Z,4.30
2019-03-29T10:09:36.923Z,4.47
2019-03-29T10:12:11.937Z,4.65
2019-03-29T10:14:41.779Z,4.87
2019-03-29T10:17:11.561Z,4.35
2019-03-29T10:19:41.382Z,4.15
2019-03-29T10:22:11.154Z,4.35
2019-03-29T10:24:40.979Z,5.35
2019-03-29T10:27:10.656Z,5.70
2019-03-29T10:29:41.396Z,5.35
2019-03-29T10:32:11.164Z,5.30
2019-03-29T10:34:40.805Z,5.67
2019-03-29T10:37:10.636Z,5.10
2019-03-29T10:39:40.585Z,5.35
2019-03-29T10:42:10.490Z,5.78
2019-03-29T10:44:40.232Z,5.90
2019-03-29T10:47:10.101Z,5.20
2019-03-29T10:49:39.855Z,5.25
2019-03-29T10:52:09.579Z,5.50
2019-03-29T10:54:39.310Z,5.53
2019-03-29T10:57:09.069Z,4.92
2019-03-29T10:59:38.789Z,5.30
2019-03-29T11:02:08.727Z,5.72
2019-03-29T11:04:38.823Z,5.30
2019-03-29T11:07:11.735Z,5.05
2019-03-29T11:09:41.983Z,4.87
2019-03-29T11:12:11.728Z,5.10
2019-03-29T11:14:41.622Z,4.95
2019-03-29T11:17:13.375Z,4.90
2019-03-29T11:19:48.611Z,3.98
2019-03-29T11:22:18.583Z,3.65
2019-03-29T11:24:49.628Z,4.33
2019-03-29T11:27:22.318Z,3.75
2019-03-29T11:29:54.602Z,4.17
2019-03-29T11:32:24.642Z,5.00
2019-03-29T11:34:54.397Z,4.85
2019-03-29T11:37:24.185Z,4.70
2019-03-29T11:39:53.855Z,4.92
2019-03-29T11:42:23.541Z,4.37
2019-03-29T11:44:53.319Z,4.50
2019-03-29T11:47:23.139Z,4.92
2019-03-29T11:49:53.051Z,4.90
2019-03-29T11:52:22.812Z,5.53
2019-03-29T11:54:52.543Z,5.20
2019-03-29T11:57:22.250Z,5.03
2019-03-29T11:59:52.930Z,5.15
2019-03-29T12:02:31.333Z,5.40
2019-03-29T12:04:54.244Z,6.22
2019-03-29T12:07:24.014Z,4.75
2019-03-29T12:09:53.693Z,4.90
2019-03-29T12:12:23.387Z,6.12
2019-03-29T12:14:53.178Z,6.00
2019-03-29T12:17:23.066Z,4.55
2019-03-29T12:19:52.773Z,6.08
2019-03-29T12:22:22.453Z,5.08
2019-03-29T12:24:52.372Z,4.80
2019-03-29T12:27:22.081Z,4.30
2019-03-29T12:29:51.835Z,4.33
2019-03-29T12:32:21.546Z,4.40
2019-03-29T12:34:51.355Z,5.13
2019-03-29T12:37:21.103Z,4.53
2019-03-29T12:39:50.842Z,5.07
2019-03-29T12:42:20.690Z,4.83
2019-03-29T12:44:50.403Z,4.57
2019-03-29T12:47:20.139Z,4.50
2019-03-29T12:49:49.930Z,4.60
2019-03-29T12:52:19.606Z,4.90
2019-03-29T12:54:49.295Z,4.10
2019-03-29T12:57:19.890Z,4.53
2019-03-29T12:59:49.649Z,3.60
2019-03-29T13:02:19.375Z,3.50
2019-03-29T13:04:49.083Z,3.40
2019-03-29T13:07:18.893Z,4.70
2019-03-29T13:09:48.716Z,3.60
2019-03-29T13:12:18.611Z,4.50
2019-03-29T13:14:50.046Z,5.03
2019-03-29T13:17:19.780Z,4.63
2019-03-29T13:19:49.665Z,5.13
2019-03-29T13:22:19.582Z,4.80
2019-03-29T13:24:49.315Z,4.23
2019-03-29T13:27:18.979Z,4.00
2019-03-29T13:29:50.122Z,4.80
2019-03-29T13:32:19.919Z,4.50
2019-03-29T13:34:51.474Z,4.07
2019-03-29T13:37:21.418Z,5.30
2019-03-29T13:39:51.168Z,5.10
2019-03-29T13:42:20.813Z,4.60
2019-03-29T14:07:21.012Z,4.33
2019-03-29T14:09:52.167Z,4.37
2019-03-29T14:12:23.843Z,4.93
2019-03-29T14:14:54.045Z,5.33
2019-03-29T14:17:24.270Z,5.00
2019-03-29T14:19:54.390Z,4.97
2019-03-29T14:22:25.798Z,4.77
2019-03-29T14:24:56.008Z,5.40
2019-03-29T14:27:27.078Z,4.93
2019-03-29T14:30:04.083Z,4.90
2019-03-29T14:32:28.610Z,5.20
2019-03-29T14:34:58.293Z,4.77
2019-03-29T14:37:28.059Z,5.37
2019-03-29T14:39:57.826Z,4.77
2019-03-29T14:42:27.702Z,4.70
2019-03-29T14:44:58.059Z,4.10
2019-03-29T14:47:40.904Z,5.47
2019-03-29T14:49:59.502Z,4.90
2019-03-29T14:57:54.512Z,4.67
2019-03-29T15:00:38.340Z,4.17
2019-03-29T15:03:08.090Z,4.10
2019-03-29T15:05:37.773Z,3.80
2019-03-29T15:08:07.501Z,4.23
2019-03-29T15:10:37.171Z,3.67
2019-03-29T15:13:07.147Z,3.10
2019-03-29T15:15:36.963Z,3.17
2019-03-29T15:18:06.665Z,3.47
2019-03-29T15:20:36.371Z,3.33
2019-03-29T15:23:06.077Z,3.07
2019-03-29T15:25:35.967Z,3.00
2019-03-29T15:28:05.813Z,2.73
2019-03-29T15:30:35.534Z,4.03
2019-03-29T15:33:05.316Z,3.07
2019-03-29T15:35:35.170Z,3.37
2019-03-29T15:38:05.042Z,3.07
2019-03-29T15:40:35.086Z,6.53
2019-03-29T15:43:04.929Z,3.50
2019-03-29T15:45:34.647Z,3.50
2019-03-29T15:48:04.528Z,3.23
2019-03-29T15:50:34.233Z,3.13
2019-03-29T15:53:03.935Z,3.23
2019-03-29T15:55:33.700Z,2.80
2019-03-29T15:58:03.456Z,3.00
2019-03-29T16:00:33.230Z,2.70
2019-03-29T16:03:03.937Z,3.00
2019-03-29T16:05:33.732Z,2.83
2019-03-29T16:08:03.538Z,3.20
2019-03-29T16:10:35.925Z,2.60
2019-03-29T16:13:05.774Z,2.40
2019-03-29T16:15:38.382Z,1.90
2019-03-29T16:18:07.180Z,3.20
2019-03-29T16:20:36.917Z,3.13
2019-03-29T16:23:06.710Z,2.43
2019-03-29T16:25:36.447Z,3.47
2019-03-29T16:28:06.168Z,3.07
2019-03-29T16:30:35.852Z,5.97
2019-03-29T16:33:05.654Z,3.40
2019-03-29T16:35:35.342Z,2.47
2019-03-29T16:41:41.175Z,3.00
2019-03-29T16:44:10.971Z,2.10
2019-03-29T16:46:40.732Z,2.53
2019-03-29T16:49:10.545Z,2.33
2019-03-29T16:51:40.319Z,2.83
2019-03-29T16:54:10.101Z,2.70
2019-03-29T16:56:39.892Z,3.37
2019-03-29T16:59:09.644Z,2.13
2019-03-29T17:01:39.781Z,2.50
2019-03-29T17:04:09.588Z,2.30
2019-03-29T17:06:39.320Z,1.93
2019-03-29T17:09:09.129Z,3.37
2019-03-29T17:11:39.007Z,2.20
2019-03-29T17:14:08.865Z,2.43
2019-03-29T17:16:38.775Z,1.93
2019-03-29T17:19:08.635Z,1.73
2019-03-29T17:21:38.353Z,2.10
2019-03-29T17:24:08.071Z,3.73
2019-03-29T17:26:37.887Z,2.13
2019-03-29T17:29:07.644Z,2.17
2019-03-29T17:31:37.491Z,2.07
2019-03-29T17:34:07.263Z,1.97
2019-03-29T17:36:36.980Z,3.57
2019-03-29T17:39:08.264Z,2.67
2019-03-29T17:41:38.005Z,2.60
2019-03-29T17:44:08.996Z,1.90
2019-03-29T17:46:39.136Z,2.23
2019-03-29T17:49:09.139Z,2.17
2019-03-29T17:51:39.305Z,3.53
2019-03-29T17:54:09.253Z,2.80
2019-03-29T17:56:39.129Z,2.60
2019-03-29T17:59:09.151Z,1.73
2019-03-29T18:01:39.564Z,1.53
2019-03-29T18:04:09.503Z,1.90
2019-03-29T18:06:39.214Z,1.60
2019-03-29T18:09:09.347Z,2.03
2019-03-29T18:11:39.039Z,1.40
2019-03-29T18:14:08.816Z,2.83
2019-03-29T18:16:38.527Z,2.80
2019-03-29T18:19:08.367Z,3.20
2019-03-29T18:21:38.224Z,1.80
2019-03-29T18:24:07.935Z,2.37
2019-03-29T18:26:38.094Z,3.20
2019-03-29T18:29:09.121Z,2.47
2019-03-29T18:31:40.478Z,4.17
2019-03-29T18:34:10.319Z,3.30
2019-03-29T18:36:40.646Z,2.70
2019-03-29T18:39:16.781Z,2.77
2019-03-29T18:41:49.516Z,3.47
2019-03-29T18:44:20.571Z,4.23
2019-03-29T18:46:53.529Z,3.50
2019-03-29T18:49:24.693Z,3.77
2019-03-29T18:51:55.621Z,3.83
2019-03-29T18:54:26.066Z,3.90
2019-03-29T18:56:57.013Z,5.10
2019-03-29T18:59:27.384Z,4.53
2019-03-29T19:01:57.974Z,4.87
2019-03-29T19:04:31.722Z,5.00
2019-03-29T19:07:51.504Z,6.20
2019-03-29T19:48:04.000Z,5.43
2019-03-29T19:50:33.803Z,4.03
2019-03-29T19:53:03.545Z,4.10
2019-03-29T19:55:33.414Z,3.97
2019-03-29T19:58:03.299Z,4.57
2019-03-29T20:00:40.607Z,3.67
2019-03-29T20:03:10.516Z,3.47
2019-03-29T20:05:40.260Z,3.90
2019-03-29T20:08:10.052Z,3.43
2019-03-29T20:10:40.108Z,4.30
2019-03-29T20:13:10.001Z,3.63
2019-03-29T20:15:39.763Z,3.83
2019-03-29T20:18:09.662Z,3.90
2019-03-29T20:20:39.667Z,3.47
2019-03-29T20:23:09.559Z,3.40
2019-03-29T20:25:39.486Z,3.33
2019-03-29T20:28:09.356Z,3.47
2019-03-29T20:30:39.663Z,3.67
2019-03-29T20:33:13.056Z,3.30
2019-03-29T20:35:41.138Z,3.27
2019-03-29T20:38:10.834Z,3.20
2019-03-29T20:40:40.549Z,3.10
2019-03-29T20:43:10.325Z,2.70
2019-03-29T20:45:40.059Z,3.20
2019-03-29T20:48:10.831Z,3.27
2019-03-29T20:50:40.473Z,3.63
2019-03-29T20:53:10.115Z,3.33
2019-03-29T20:55:39.894Z,3.03
2019-03-29T20:58:09.656Z,3.03
2019-03-29T21:00:39.393Z,4.20
2019-03-29T21:03:09.165Z,4.00
2019-03-29T21:05:39.091Z,3.10
2019-03-29T21:08:08.964Z,3.00
2019-03-29T21:10:39.008Z,3.13
2019-03-29T21:13:08.694Z,6.40
2019-03-29T21:15:38.576Z,3.03
2019-03-29T21:18:08.337Z,4.13
2019-03-29T21:20:38.496Z,2.63
2019-03-29T21:23:08.203Z,3.43
2019-03-29T21:25:38.213Z,3.33
2019-03-29T21:28:07.881Z,3.93
2019-03-29T21:30:37.569Z,4.73
2019-03-29T21:33:07.336Z,3.67
2019-03-29T21:35:37.948Z,5.47
2019-03-29T21:38:07.739Z,4.07
2019-03-29T21:40:37.466Z,3.90
2019-03-29T21:43:07.173Z,5.07
2019-03-29T21:45:36.935Z,4.23
2019-03-29T21:48:27.396Z,4.43
2019-03-29T21:50:38.264Z,4.63
2019-03-29T21:53:08.040Z,5.47
2019-03-29T21:55:37.761Z,6.37
2019-03-29T21:58:07.531Z,4.17
2019-03-29T22:00:37.241Z,4.00
2019-03-29T22:03:06.984Z,3.93
2019-03-29T22:05:36.640Z,4.63
2019-03-29T22:08:06.412Z,4.60
2019-03-29T22:10:36.108Z,4.00
2019-03-29T22:13:05.859Z,4.80
2019-03-29T22:15:35.582Z,4.20
2019-03-29T22:18:06.869Z,5.00
2019-03-29T22:20:42.244Z,6.93
2019-03-29T22:23:11.934Z,4.33
2019-03-29T22:25:41.675Z,5.27
2019-03-29T22:28:11.430Z,6.43
2019-03-29T22:30:43.929Z,6.43
2019-03-29T22:33:13.560Z,4.60
2019-03-29T22:35:43.279Z,5.50
2019-03-29T22:38:12.989Z,7.07
2019-03-29T22:40:42.789Z,7.30
2019-03-29T22:43:12.657Z,5.23
2019-03-29T22:45:42.347Z,5.97
2019-03-29T22:48:12.167Z,8.47
2019-03-29T22:50:41.835Z,8.30
2019-03-29T22:53:11.584Z,6.70
2019-03-29T22:55:41.281Z,6.07
2019-03-29T22:58:10.972Z,5.57
2019-03-29T23:00:42.313Z,6.23
2019-03-29T23:03:14.764Z,6.33
2019-03-29T23:05:44.655Z,5.13
2019-03-29T23:08:14.660Z,5.93
2019-03-29T23:10:44.397Z,5.70
2019-03-29T23:13:14.132Z,8.67
2019-03-29T23:15:43.889Z,4.97
2019-03-29T23:18:13.596Z,6.93
2019-03-29T23:20:43.368Z,6.90
2019-03-29T23:23:13.079Z,5.80
2019-03-29T23:25:42.802Z,6.13
2019-03-29T23:28:12.544Z,7.33
2019-03-29T23:30:42.322Z,5.87
2019-03-29T23:33:12.006Z,7.03
2019-03-29T23:35:41.858Z,5.93
2019-03-29T23:38:11.473Z,5.97
2019-03-29T23:40:41.171Z,7.00
2019-03-29T23:43:10.884Z,6.67
2019-03-29T23:45:40.748Z,8.87
2019-03-29T23:48:10.458Z,6.80
2019-03-29T23:50:40.179Z,7.33
2019-03-29T23:53:09.843Z,9.00
2019-03-29T23:55:39.587Z,6.73
2019-03-29T23:58:09.201Z,7.40
